sensor_id;sensor_type;location;lat;lon;timestamp;pressure;altitude;pressure_sealevel;temperature;humidity
64841;BME280;51307;52.162;7.560;2023-04-20T00:00:20;101632.97;;;10.08;30.26
64841;BME280;51307;52.162;7.560;2023-04-20T00:02:46;101630.06;;;10.21;30.48
64841;BME280;51307;52.162;7.560;2023-04-20T00:05:12;101630.59;;;10.15;30.29
64841;BME280;51307;52.162;7.560;2023-04-20T00:07:37;101626.66;;;10.09;30.55
64841;BME280;51307;52.162;7.560;2023-04-20T00:10:06;101631.72;;;10.13;30.98
64841;BME280;51307;52.162;7.560;2023-04-20T00:12:32;101614.78;;;9.92;31.68
64841;BME280;51307;52.162;7.560;2023-04-20T00:14:57;101621.28;;;10.00;31.83
64841;BME280;51307;52.162;7.560;2023-04-20T00:17:23;101623.53;;;10.04;32.21
64841;BME280;51307;52.162;7.560;2023-04-20T00:19:49;101617.22;;;10.05;32.59
64841;BME280;51307;52.162;7.560;2023-04-20T00:22:14;101614.53;;;10.05;32.59
64841;BME280;51307;52.162;7.560;2023-04-20T00:24:40;101612.78;;;9.85;33.27
64841;BME280;51307;52.162;7.560;2023-04-20T00:27:05;101602.53;;;9.90;33.30
64841;BME280;51307;52.162;7.560;2023-04-20T00:29:31;101602.69;;;9.98;33.73
64841;BME280;51307;52.162;7.560;2023-04-20T00:31:57;101598.72;;;9.92;34.08
64841;BME280;51307;52.162;7.560;2023-04-20T00:34:22;101590.03;;;10.00;33.90
64841;BME280;51307;52.162;7.560;2023-04-20T00:36:48;101585.56;;;10.10;34.00
64841;BME280;51307;52.162;7.560;2023-04-20T00:39:13;101585.22;;;9.94;34.27
64841;BME280;51307;52.162;7.560;2023-04-20T00:41:39;101583.84;;;10.00;34.45
64841;BME280;51307;52.162;7.560;2023-04-20T00:44:05;101572.16;;;10.01;34.37
64841;BME280;51307;52.162;7.560;2023-04-20T00:46:32;101576.97;;;9.97;34.43
64841;BME280;51307;52.162;7.560;2023-04-20T00:48:59;101558.25;;;9.97;34.41
64841;BME280;51307;52.162;7.560;2023-04-20T00:51:25;101567.53;;;10.03;34.95
64841;BME280;51307;52.162;7.560;2023-04-20T00:53:52;101555.28;;;10.00;34.90
64841;BME280;51307;52.162;7.560;2023-04-20T00:56:17;101555.41;;;9.89;34.85
64841;BME280;51307;52.162;7.560;2023-04-20T00:58:45;101552.59;;;9.90;35.08
64841;BME280;51307;52.162;7.560;2023-04-20T01:01:11;101555.28;;;10.00;34.62
64841;BME280;51307;52.162;7.560;2023-04-20T01:03:38;101552.47;;;9.92;34.88
64841;BME280;51307;52.162;7.560;2023-04-20T01:06:04;101554.84;;;10.05;34.61
64841;BME280;51307;52.162;7.560;2023-04-20T01:08:30;101550.91;;;9.99;34.52
64841;BME280;51307;52.162;7.560;2023-04-20T01:10:56;101537.38;;;9.81;35.06
64841;BME280;51307;52.162;7.560;2023-04-20T01:13:22;101544.44;;;10.02;34.99
64841;BME280;51307;52.162;7.560;2023-04-20T01:15:48;101541.09;;;10.09;34.69
64841;BME280;51307;52.162;7.560;2023-04-20T01:18:13;101533.75;;;10.12;34.79
64841;BME280;51307;52.162;7.560;2023-04-20T01:20:39;101519.69;;;10.09;35.01
64841;BME280;51307;52.162;7.560;2023-04-20T01:23:05;101523.03;;;9.82;35.56
64841;BME280;51307;52.162;7.560;2023-04-20T01:25:30;101526.56;;;10.02;35.02
64841;BME280;51307;52.162;7.560;2023-04-20T01:27:56;101531.09;;;10.02;35.19
64841;BME280;51307;52.162;7.560;2023-04-20T01:30:21;101528.13;;;10.05;35.06
64841;BME280;51307;52.162;7.560;2023-04-20T01:32:47;101528.13;;;10.05;35.08
64841;BME280;51307;52.162;7.560;2023-04-20T01:35:13;101523.34;;;9.99;35.18
64841;BME280;51307;52.162;7.560;2023-04-20T01:37:39;101508.00;;;10.01;35.35
64841;BME280;51307;52.162;7.560;2023-04-20T01:40:07;101505.03;;;9.94;35.63
64841;BME280;51307;52.162;7.560;2023-04-20T01:42:33;101509.09;;;9.79;35.71
64841;BME280;51307;52.162;7.560;2023-04-20T01:44:58;101504.34;;;9.82;36.34
64841;BME280;51307;52.162;7.560;2023-04-20T01:47:24;101505.59;;;9.98;36.22
64841;BME280;51307;52.162;7.560;2023-04-20T01:49:49;101498.84;;;9.84;36.15
64841;BME280;51307;52.162;7.560;2023-04-20T01:52:15;101500.09;;;9.80;36.69
64841;BME280;51307;52.162;7.560;2023-04-20T01:54:40;101500.78;;;9.72;37.23
64841;BME280;51307;52.162;7.560;2023-04-20T01:57:06;101486.16;;;9.66;38.26
64841;BME280;51307;52.162;7.560;2023-04-20T01:59:31;101491.34;;;9.58;38.66
64841;BME280;51307;52.162;7.560;2023-04-20T02:01:57;101483.88;;;9.52;39.31
64841;BME280;51307;52.162;7.560;2023-04-20T02:04:23;101487.41;;;9.62;39.46
64841;BME280;51307;52.162;7.560;2023-04-20T02:06:48;101488.38;;;9.61;39.62
64841;BME280;51307;52.162;7.560;2023-04-20T02:09:14;101478.94;;;9.47;39.90
64841;BME280;51307;52.162;7.560;2023-04-20T02:11:39;101491.44;;;9.47;39.94
64841;BME280;51307;52.162;7.560;2023-04-20T02:14:05;101480.06;;;9.45;40.10
64841;BME280;51307;52.162;7.560;2023-04-20T02:16:31;101486.22;;;9.35;40.47
64841;BME280;51307;52.162;7.560;2023-04-20T02:18:56;101474.59;;;9.56;40.30
64841;BME280;51307;52.162;7.560;2023-04-20T02:21:22;101482.28;;;9.39;40.75
64841;BME280;51307;52.162;7.560;2023-04-20T02:23:47;101481.53;;;9.28;40.98
64841;BME280;51307;52.162;7.560;2023-04-20T02:26:13;101478.88;;;9.37;40.96
64841;BME280;51307;52.162;7.560;2023-04-20T02:28:38;101493.63;;;9.32;41.07
64841;BME280;51307;52.162;7.560;2023-04-20T02:31:04;101492.19;;;9.18;41.62
64841;BME280;51307;52.162;7.560;2023-04-20T02:33:29;101500.59;;;9.13;41.96
64841;BME280;51307;52.162;7.560;2023-04-20T02:35:55;101484.84;;;9.10;42.15
64841;BME280;51307;52.162;7.560;2023-04-20T02:38:20;101494.09;;;9.06;42.24
64841;BME280;51307;52.162;7.560;2023-04-20T02:40:46;101486.25;;;9.14;42.30
64841;BME280;51307;52.162;7.560;2023-04-20T02:43:11;101489.06;;;9.13;42.52
64841;BME280;51307;52.162;7.560;2023-04-20T02:45:37;101486.13;;;9.16;42.67
64841;BME280;51307;52.162;7.560;2023-04-20T02:48:03;101474.47;;;9.17;42.68
64841;BME280;51307;52.162;7.560;2023-04-20T02:50:28;101476.88;;;9.20;42.74
64841;BME280;51307;52.162;7.560;2023-04-20T02:52:54;101478.38;;;9.13;42.95
64841;BME280;51307;52.162;7.560;2023-04-20T02:55:20;101481.50;;;9.18;42.92
64841;BME280;51307;52.162;7.560;2023-04-20T02:57:45;101481.50;;;9.18;43.25
64841;BME280;51307;52.162;7.560;2023-04-20T03:00:11;101476.16;;;9.18;43.25
64841;BME280;51307;52.162;7.560;2023-04-20T03:02:38;101473.84;;;9.03;43.40
64841;BME280;51307;52.162;7.560;2023-04-20T03:05:04;101464.16;;;9.02;43.89
64841;BME280;51307;52.162;7.560;2023-04-20T03:07:30;101462.03;;;8.96;43.95
64841;BME280;51307;52.162;7.560;2023-04-20T03:09:55;101460.78;;;9.00;44.09
64841;BME280;51307;52.162;7.560;2023-04-20T03:12:21;101457.38;;;8.98;44.06
64841;BME280;51307;52.162;7.560;2023-04-20T03:14:47;101454.53;;;8.90;44.22
64841;BME280;51307;52.162;7.560;2023-04-20T03:17:12;101459.78;;;9.01;44.12
64841;BME280;51307;52.162;7.560;2023-04-20T03:19:38;101461.47;;;9.02;44.37
64841;BME280;51307;52.162;7.560;2023-04-20T03:22:03;101465.38;;;8.98;44.37
64841;BME280;51307;52.162;7.560;2023-04-20T03:24:29;101458.63;;;8.94;44.52
64841;BME280;51307;52.162;7.560;2023-04-20T03:26:55;101458.34;;;8.97;44.54
64841;BME280;51307;52.162;7.560;2023-04-20T03:29:20;101456.00;;;9.04;44.32
64841;BME280;51307;52.162;7.560;2023-04-20T03:31:46;101437.44;;;9.02;44.32
64841;BME280;51307;52.162;7.560;2023-04-20T03:34:11;101423.31;;;9.12;44.46
64841;BME280;51307;52.162;7.560;2023-04-20T03:36:37;101421.47;;;8.81;44.86
64841;BME280;51307;52.162;7.560;2023-04-20T03:39:03;101416.22;;;8.91;44.90
64841;BME280;51307;52.162;7.560;2023-04-20T03:41:29;101402.28;;;8.87;44.53
64841;BME280;51307;52.162;7.560;2023-04-20T03:43:55;101404.56;;;8.92;44.73
64841;BME280;51307;52.162;7.560;2023-04-20T03:46:21;101401.88;;;8.92;44.83
64841;BME280;51307;52.162;7.560;2023-04-20T03:48:46;101409.59;;;8.85;45.31
64841;BME280;51307;52.162;7.560;2023-04-20T03:51:12;101407.22;;;8.92;45.24
64841;BME280;51307;52.162;7.560;2023-04-20T03:53:37;101417.22;;;9.00;45.10
64841;BME280;51307;52.162;7.560;2023-04-20T03:56:03;101422.09;;;8.95;45.07
64841;BME280;51307;52.162;7.560;2023-04-20T03:58:28;101424.59;;;8.86;45.15
64841;BME280;51307;52.162;7.560;2023-04-20T04:01:01;101422.06;;;8.85;45.35
64841;BME280;51307;52.162;7.560;2023-04-20T04:03:27;101431.88;;;8.84;45.51
64841;BME280;51307;52.162;7.560;2023-04-20T04:05:52;101427.13;;;8.88;45.49
64841;BME280;51307;52.162;7.560;2023-04-20T04:08:18;101423.00;;;8.84;45.78
64841;BME280;51307;52.162;7.560;2023-04-20T04:10:43;101431.25;;;8.92;45.64
64841;BME280;51307;52.162;7.560;2023-04-20T04:13:09;101436.97;;;8.87;45.87
64841;BME280;51307;52.162;7.560;2023-04-20T04:15:34;101427.53;;;8.62;46.22
64841;BME280;51307;52.162;7.560;2023-04-20T04:18:00;101425.03;;;8.70;46.45
64841;BME280;51307;52.162;7.560;2023-04-20T04:20:25;101423.56;;;8.78;46.38
64841;BME280;51307;52.162;7.560;2023-04-20T04:22:51;101417.09;;;8.49;46.76
64841;BME280;51307;52.162;7.560;2023-04-20T04:25:17;101417.78;;;8.72;46.62
64841;BME280;51307;52.162;7.560;2023-04-20T04:27:42;101415.50;;;8.68;46.84
64841;BME280;51307;52.162;7.560;2023-04-20T04:30:08;101414.38;;;8.70;46.75
64841;BME280;51307;52.162;7.560;2023-04-20T04:32:35;101420.03;;;8.77;46.80
64841;BME280;51307;52.162;7.560;2023-04-20T04:35:02;101423.25;;;8.71;46.93
64841;BME280;51307;52.162;7.560;2023-04-20T04:37:27;101422.47;;;8.59;47.20
64841;BME280;51307;52.162;7.560;2023-04-20T04:39:53;101430.38;;;8.70;47.17
64841;BME280;51307;52.162;7.560;2023-04-20T04:42:18;101427.28;;;8.65;47.35
64841;BME280;51307;52.162;7.560;2023-04-20T04:44:44;101428.31;;;8.53;47.26
64841;BME280;51307;52.162;7.560;2023-04-20T04:47:09;101436.84;;;8.68;47.33
64841;BME280;51307;52.162;7.560;2023-04-20T04:49:36;101428.13;;;8.66;47.33
64841;BME280;51307;52.162;7.560;2023-04-20T04:52:01;101425.47;;;8.66;47.34
64841;BME280;51307;52.162;7.560;2023-04-20T04:54:27;101426.19;;;8.68;47.29
64841;BME280;51307;52.162;7.560;2023-04-20T04:56:52;101429.41;;;8.71;47.58
64841;BME280;51307;52.162;7.560;2023-04-20T04:59:18;101434.19;;;8.47;47.90
64841;BME280;51307;52.162;7.560;2023-04-20T05:01:43;101429.78;;;8.57;47.96
64841;BME280;51307;52.162;7.560;2023-04-20T05:04:09;101429.50;;;8.60;47.99
64841;BME280;51307;52.162;7.560;2023-04-20T05:06:34;101428.41;;;8.63;47.83
64841;BME280;51307;52.162;7.560;2023-04-20T05:09:00;101423.91;;;8.42;48.44
64841;BME280;51307;52.162;7.560;2023-04-20T05:11:26;101431.75;;;8.65;48.25
64841;BME280;51307;52.162;7.560;2023-04-20T05:13:51;101429.19;;;8.53;48.48
64841;BME280;51307;52.162;7.560;2023-04-20T05:16:17;101432.44;;;8.57;48.39
64841;BME280;51307;52.162;7.560;2023-04-20T05:18:42;101428.63;;;8.59;48.38
64841;BME280;51307;52.162;7.560;2023-04-20T05:21:08;101425.16;;;8.38;48.97
64841;BME280;51307;52.162;7.560;2023-04-20T05:23:33;101433.00;;;8.61;48.66
64841;BME280;51307;52.162;7.560;2023-04-20T05:25:59;101432.13;;;8.50;49.04
64841;BME280;51307;52.162;7.560;2023-04-20T05:28:24;101443.47;;;8.31;49.21
64841;BME280;51307;52.162;7.560;2023-04-20T05:30:51;101436.13;;;8.66;48.89
64841;BME280;51307;52.162;7.560;2023-04-20T05:33:19;101443.41;;;8.21;49.79
64841;BME280;51307;52.162;7.560;2023-04-20T05:35:45;101443.81;;;8.59;49.46
64841;BME280;51307;52.162;7.560;2023-04-20T05:38:11;101444.13;;;8.66;49.05
64841;BME280;51307;52.162;7.560;2023-04-20T05:40:36;101442.13;;;8.58;49.44
64841;BME280;51307;52.162;7.560;2023-04-20T05:43:02;101441.97;;;8.59;49.27
64841;BME280;51307;52.162;7.560;2023-04-20T05:45:27;101448.38;;;8.26;50.25
64841;BME280;51307;52.162;7.560;2023-04-20T05:47:56;101446.63;;;8.57;49.70
64841;BME280;51307;52.162;7.560;2023-04-20T05:50:23;101459.63;;;8.51;49.84
64841;BME280;51307;52.162;7.560;2023-04-20T05:52:49;101453.31;;;8.52;49.90
64841;BME280;51307;52.162;7.560;2023-04-20T05:55:14;101455.44;;;8.58;49.93
64841;BME280;51307;52.162;7.560;2023-04-20T05:57:40;101445.09;;;8.65;49.93
64841;BME280;51307;52.162;7.560;2023-04-20T06:00:14;101448.31;;;8.58;50.05
64841;BME280;51307;52.162;7.560;2023-04-20T06:02:41;101442.78;;;8.50;50.24
64841;BME280;51307;52.162;7.560;2023-04-20T06:05:07;101455.47;;;8.37;50.87
64841;BME280;51307;52.162;7.560;2023-04-20T06:07:37;101456.31;;;8.37;50.78
64841;BME280;51307;52.162;7.560;2023-04-20T06:10:04;101449.09;;;8.28;50.98
64841;BME280;51307;52.162;7.560;2023-04-20T06:12:30;101464.13;;;8.29;51.20
64841;BME280;51307;52.162;7.560;2023-04-20T06:14:59;101459.09;;;8.36;51.17
64841;BME280;51307;52.162;7.560;2023-04-20T06:17:25;101458.25;;;8.35;51.14
64841;BME280;51307;52.162;7.560;2023-04-20T06:19:50;101462.09;;;8.21;51.71
64841;BME280;51307;52.162;7.560;2023-04-20T06:22:17;101461.59;;;8.28;51.35
64841;BME280;51307;52.162;7.560;2023-04-20T06:24:42;101462.09;;;8.21;51.65
64841;BME280;51307;52.162;7.560;2023-04-20T06:27:08;101456.16;;;8.18;51.88
64841;BME280;51307;52.162;7.560;2023-04-20T06:29:34;101452.78;;;8.16;51.71
64841;BME280;51307;52.162;7.560;2023-04-20T06:32:00;101444.16;;;8.23;51.79
64841;BME280;51307;52.162;7.560;2023-04-20T06:34:25;101448.75;;;8.21;51.69
64841;BME280;51307;52.162;7.560;2023-04-20T06:36:51;101446.09;;;8.21;51.73
64841;BME280;51307;52.162;7.560;2023-04-20T06:39:16;101444.03;;;8.25;51.83
64841;BME280;51307;52.162;7.560;2023-04-20T06:41:42;101448.63;;;8.23;51.73
64841;BME280;51307;52.162;7.560;2023-04-20T06:44:08;101446.41;;;8.28;51.90
64841;BME280;51307;52.162;7.560;2023-04-20T06:46:33;101444.72;;;8.27;52.12
64841;BME280;51307;52.162;7.560;2023-04-20T06:48:59;101454.69;;;8.25;52.00
64841;BME280;51307;52.162;7.560;2023-04-20T06:51:25;101453.13;;;8.22;52.03
64841;BME280;51307;52.162;7.560;2023-04-20T06:53:52;101459.81;;;8.17;52.09
64841;BME280;51307;52.162;7.560;2023-04-20T06:56:17;101442.72;;;8.19;52.10
64841;BME280;51307;52.162;7.560;2023-04-20T06:58:43;101440.69;;;8.12;52.29
64841;BME280;51307;52.162;7.560;2023-04-20T07:01:08;101440.88;;;8.20;52.10
64841;BME280;51307;52.162;7.560;2023-04-20T07:03:34;101437.38;;;8.19;52.29
64841;BME280;51307;52.162;7.560;2023-04-20T07:05:59;101436.06;;;8.14;52.36
64841;BME280;51307;52.162;7.560;2023-04-20T07:08:25;101431.66;;;8.24;52.43
64841;BME280;51307;52.162;7.560;2023-04-20T07:10:50;101434.59;;;8.21;52.56
64841;BME280;51307;52.162;7.560;2023-04-20T07:13:16;101432.16;;;8.18;52.43
64841;BME280;51307;52.162;7.560;2023-04-20T07:15:41;101433.34;;;8.25;52.72
64841;BME280;51307;52.162;7.560;2023-04-20T07:18:09;101441.91;;;8.29;52.60
64841;BME280;51307;52.162;7.560;2023-04-20T07:20:35;101429.97;;;8.23;52.81
64841;BME280;51307;52.162;7.560;2023-04-20T07:23:00;101443.28;;;8.23;52.75
64841;BME280;51307;52.162;7.560;2023-04-20T07:25:26;101429.50;;;8.18;52.67
64841;BME280;51307;52.162;7.560;2023-04-20T07:27:52;101429.13;;;8.22;52.77
64841;BME280;51307;52.162;7.560;2023-04-20T07:30:17;101436.03;;;8.25;52.75
64841;BME280;51307;52.162;7.560;2023-04-20T07:32:42;101431.97;;;8.31;52.76
64841;BME280;51307;52.162;7.560;2023-04-20T07:35:08;101428.22;;;8.33;52.56
64841;BME280;51307;52.162;7.560;2023-04-20T07:37:34;101412.22;;;8.33;52.44
64841;BME280;51307;52.162;7.560;2023-04-20T07:40:01;101427.56;;;8.41;52.31
64841;BME280;51307;52.162;7.560;2023-04-20T07:42:28;101434.16;;;8.37;52.31
64841;BME280;51307;52.162;7.560;2023-04-20T07:44:53;101424.03;;;8.40;52.13
64841;BME280;51307;52.162;7.560;2023-04-20T07:47:19;101433.03;;;8.39;52.33
64841;BME280;51307;52.162;7.560;2023-04-20T07:49:45;101442.00;;;8.38;52.31
64841;BME280;51307;52.162;7.560;2023-04-20T07:52:10;101447.59;;;8.35;52.02
64841;BME280;51307;52.162;7.560;2023-04-20T07:54:37;101438.47;;;8.38;51.75
64841;BME280;51307;52.162;7.560;2023-04-20T07:57:02;101438.28;;;8.30;51.87
64841;BME280;51307;52.162;7.560;2023-04-20T07:59:28;101438.41;;;8.28;52.04
64841;BME280;51307;52.162;7.560;2023-04-20T08:01:58;101438.09;;;8.42;52.27
64841;BME280;51307;52.162;7.560;2023-04-20T08:04:25;101437.19;;;8.32;52.58
64841;BME280;51307;52.162;7.560;2023-04-20T08:06:51;101436.72;;;8.48;52.12
64841;BME280;51307;52.162;7.560;2023-04-20T08:09:16;101425.22;;;8.48;51.52
64841;BME280;51307;52.162;7.560;2023-04-20T08:11:42;101418.84;;;8.39;51.84
64841;BME280;51307;52.162;7.560;2023-04-20T08:14:11;101434.06;;;8.48;51.96
64841;BME280;51307;52.162;7.560;2023-04-20T08:16:36;101422.47;;;8.38;51.94
64841;BME280;51307;52.162;7.560;2023-04-20T08:19:02;101425.66;;;8.53;51.82
64841;BME280;51307;52.162;7.560;2023-04-20T08:21:37;101423.84;;;8.53;51.65
64841;BME280;51307;52.162;7.560;2023-04-20T08:24:04;101423.53;;;8.47;51.46
64841;BME280;51307;52.162;7.560;2023-04-20T08:26:30;101423.84;;;8.53;51.39
64841;BME280;51307;52.162;7.560;2023-04-20T08:28:56;101426.25;;;8.56;51.41
64841;BME280;51307;52.162;7.560;2023-04-20T08:31:21;101416.53;;;8.55;51.07
64841;BME280;51307;52.162;7.560;2023-04-20T08:33:47;101413.84;;;8.46;51.18
64841;BME280;51307;52.162;7.560;2023-04-20T08:36:12;101425.09;;;8.49;51.08
64841;BME280;51307;52.162;7.560;2023-04-20T08:38:38;101411.75;;;8.49;53.04
64841;BME280;51307;52.162;7.560;2023-04-20T08:41:03;101406.97;;;8.53;54.27
64841;BME280;51307;52.162;7.560;2023-04-20T08:43:30;101420.31;;;8.53;54.24
64841;BME280;51307;52.162;7.560;2023-04-20T08:46:00;101421.09;;;8.65;54.03
64841;BME280;51307;52.162;7.560;2023-04-20T08:48:34;101415.63;;;8.66;53.85
64841;BME280;51307;52.162;7.560;2023-04-20T08:51:02;101420.56;;;8.71;53.21
64841;BME280;51307;52.162;7.560;2023-04-20T08:53:28;101405.47;;;8.81;53.05
64841;BME280;51307;52.162;7.560;2023-04-20T08:55:54;101407.47;;;8.89;52.91
64841;BME280;51307;52.162;7.560;2023-04-20T08:58:26;101407.22;;;8.92;51.42
64841;BME280;51307;52.162;7.560;2023-04-20T09:00:53;101407.78;;;8.96;51.39
64841;BME280;51307;52.162;7.560;2023-04-20T09:03:33;101418.63;;;9.04;51.54
64841;BME280;51307;52.162;7.560;2023-04-20T09:05:59;101413.25;;;8.94;50.74
64841;BME280;51307;52.162;7.560;2023-04-20T09:08:39;101423.13;;;9.03;50.65
64841;BME280;51307;52.162;7.560;2023-04-20T09:11:05;101416.09;;;9.02;50.74
64841;BME280;51307;52.162;7.560;2023-04-20T09:13:31;101414.00;;;9.06;51.04
64841;BME280;51307;52.162;7.560;2023-04-20T09:15:57;101420.91;;;9.08;50.93
64841;BME280;51307;52.162;7.560;2023-04-20T09:18:22;101410.41;;;9.17;50.56
64841;BME280;51307;52.162;7.560;2023-04-20T09:20:49;101409.28;;;9.29;50.09
64841;BME280;51307;52.162;7.560;2023-04-20T09:23:17;101409.72;;;9.24;49.57
64841;BME280;51307;52.162;7.560;2023-04-20T09:25:44;101409.16;;;9.31;49.98
64841;BME280;51307;52.162;7.560;2023-04-20T09:28:12;101414.66;;;9.39;49.66
64841;BME280;51307;52.162;7.560;2023-04-20T09:30:47;101409.28;;;9.29;48.82
64841;BME280;51307;52.162;7.560;2023-04-20T09:33:13;101401.44;;;9.37;48.67
64841;BME280;51307;52.162;7.560;2023-04-20T09:35:44;101407.91;;;9.35;48.22
64841;BME280;51307;52.162;7.560;2023-04-20T09:38:13;101406.91;;;9.36;48.52
64841;BME280;51307;52.162;7.560;2023-04-20T09:40:39;101414.25;;;9.53;48.87
64841;BME280;51307;52.162;7.560;2023-04-20T09:43:11;101409.22;;;9.50;47.80
64841;BME280;51307;52.162;7.560;2023-04-20T09:45:38;101398.63;;;9.39;47.85
64841;BME280;51307;52.162;7.560;2023-04-20T09:48:05;101403.44;;;9.45;48.53
64841;BME280;51307;52.162;7.560;2023-04-20T09:50:31;101396.69;;;9.60;48.22
64841;BME280;51307;52.162;7.560;2023-04-20T09:53:01;101383.06;;;9.64;47.62
64841;BME280;51307;52.162;7.560;2023-04-20T09:55:29;101386.59;;;9.84;47.81
64841;BME280;51307;52.162;7.560;2023-04-20T09:57:55;101388.28;;;9.95;47.02
64841;BME280;51307;52.162;7.560;2023-04-20T10:00:22;101392.50;;;9.97;47.32
64841;BME280;51307;52.162;7.560;2023-04-20T10:02:48;101385.84;;;10.11;46.40
64841;BME280;51307;52.162;7.560;2023-04-20T10:05:13;101383.91;;;10.13;46.21
64841;BME280;51307;52.162;7.560;2023-04-20T10:07:41;101375.13;;;10.21;46.84
64841;BME280;51307;52.162;7.560;2023-04-20T10:10:14;101384.84;;;10.22;46.27
64841;BME280;51307;52.162;7.560;2023-04-20T10:12:55;101379.22;;;10.15;45.59
64841;BME280;51307;52.162;7.560;2023-04-20T10:15:22;101381.22;;;10.13;45.42
64841;BME280;51307;52.162;7.560;2023-04-20T10:17:52;101387.41;;;10.14;45.32
64841;BME280;51307;52.162;7.560;2023-04-20T10:20:26;101384.72;;;10.14;45.05
64841;BME280;51307;52.162;7.560;2023-04-20T10:23:04;101381.88;;;10.25;45.83
64841;BME280;51307;52.162;7.560;2023-04-20T10:25:30;101375.25;;;10.29;46.23
64841;BME280;51307;52.162;7.560;2023-04-20T10:28:01;101368.22;;;10.48;45.97
64841;BME280;51307;52.162;7.560;2023-04-20T10:30:30;101368.72;;;10.61;44.97
64841;BME280;51307;52.162;7.560;2023-04-20T10:35:27;101360.53;;;10.72;43.58
64841;BME280;51307;52.162;7.560;2023-04-20T10:37:54;101365.06;;;10.62;43.80
64841;BME280;51307;52.162;7.560;2023-04-20T10:40:26;101369.28;;;10.65;43.82
64841;BME280;51307;52.162;7.560;2023-04-20T10:42:51;101364.66;;;10.57;43.86
64841;BME280;51307;52.162;7.560;2023-04-20T10:45:17;101363.97;;;10.55;43.72
64841;BME280;51307;52.162;7.560;2023-04-20T10:47:43;101367.38;;;10.47;43.86
64841;BME280;51307;52.162;7.560;2023-04-20T10:50:14;101368.78;;;10.41;44.43
64841;BME280;51307;52.162;7.560;2023-04-20T10:52:42;101365.09;;;10.42;44.55
64841;BME280;51307;52.162;7.560;2023-04-20T10:55:25;101362.03;;;10.47;44.37
64841;BME280;51307;52.162;7.560;2023-04-20T10:57:51;101359.06;;;10.50;44.67
64841;BME280;51307;52.162;7.560;2023-04-20T11:00:23;101359.75;;;10.52;43.69
64841;BME280;51307;52.162;7.560;2023-04-20T11:02:53;101364.25;;;10.52;43.21
64841;BME280;51307;52.162;7.560;2023-04-20T11:05:22;101359.31;;;10.57;44.74
64841;BME280;51307;52.162;7.560;2023-04-20T11:10:18;101370.31;;;10.54;44.50
64841;BME280;51307;52.162;7.560;2023-04-20T11:12:43;101359.31;;;10.57;43.89
64841;BME280;51307;52.162;7.560;2023-04-20T11:15:09;101359.41;;;10.65;45.42
64841;BME280;51307;52.162;7.560;2023-04-20T11:17:35;101353.19;;;10.74;45.42
64841;BME280;51307;52.162;7.560;2023-04-20T11:20:09;101352.19;;;10.75;44.18
64841;BME280;51307;52.162;7.560;2023-04-20T11:22:40;101346.38;;;10.80;43.57
64841;BME280;51307;52.162;7.560;2023-04-20T11:25:08;101346.22;;;10.82;42.06
64841;BME280;51307;52.162;7.560;2023-04-20T11:27:36;101347.00;;;10.64;42.27
64841;BME280;51307;52.162;7.560;2023-04-20T11:30:03;101351.13;;;10.58;42.38
64841;BME280;51307;52.162;7.560;2023-04-20T11:32:34;101345.97;;;10.75;43.84
64841;BME280;51307;52.162;7.560;2023-04-20T11:35:01;101346.03;;;10.65;44.26
64841;BME280;51307;52.162;7.560;2023-04-20T11:37:27;101345.72;;;10.68;44.60
64841;BME280;51307;52.162;7.560;2023-04-20T11:40:04;101355.72;;;10.76;44.61
64841;BME280;51307;52.162;7.560;2023-04-20T11:42:32;101350.50;;;10.74;44.82
64841;BME280;51307;52.162;7.560;2023-04-20T11:44:58;101353.19;;;10.74;45.00
64841;BME280;51307;52.162;7.560;2023-04-20T11:47:24;101344.47;;;10.72;44.63
64841;BME280;51307;52.162;7.560;2023-04-20T11:49:49;101352.63;;;10.71;44.34
64841;BME280;51307;52.162;7.560;2023-04-20T11:52:15;101350.72;;;10.63;44.12
64841;BME280;51307;52.162;7.560;2023-04-20T11:54:41;101351.13;;;10.58;44.08
64841;BME280;51307;52.162;7.560;2023-04-20T11:57:06;101347.66;;;10.48;44.27
64841;BME280;51307;52.162;7.560;2023-04-20T11:59:32;101351.84;;;10.51;44.87
64841;BME280;51307;52.162;7.560;2023-04-20T12:01:57;101358.22;;;10.50;44.65
64841;BME280;51307;52.162;7.560;2023-04-20T12:04:25;101350.19;;;10.50;44.86
64841;BME280;51307;52.162;7.560;2023-04-20T12:06:51;101351.84;;;10.51;45.26
64841;BME280;51307;52.162;7.560;2023-04-20T12:09:16;101350.88;;;10.52;45.26
64841;BME280;51307;52.162;7.560;2023-04-20T12:11:41;101355.81;;;10.56;44.78
64841;BME280;51307;52.162;7.560;2023-04-20T12:14:07;101343.09;;;10.58;44.68
64841;BME280;51307;52.162;7.560;2023-04-20T12:16:33;101343.97;;;10.59;44.10
64841;BME280;51307;52.162;7.560;2023-04-20T12:18:58;101348.84;;;10.64;43.44
64841;BME280;51307;52.162;7.560;2023-04-20T12:21:23;101348.03;;;10.63;43.63
64841;BME280;51307;52.162;7.560;2023-04-20T12:23:49;101347.72;;;10.66;43.08
64841;BME280;51307;52.162;7.560;2023-04-20T12:26:15;101345.31;;;10.73;44.02
64841;BME280;51307;52.162;7.560;2023-04-20T12:28:41;101339.94;;;10.73;42.82
64841;BME280;51307;52.162;7.560;2023-04-20T12:31:06;101340.44;;;10.86;42.54
64841;BME280;51307;52.162;7.560;2023-04-20T12:33:32;101339.31;;;10.89;42.17
64841;BME280;51307;52.162;7.560;2023-04-20T12:35:58;101340.94;;;11.00;42.47
64841;BME280;51307;52.162;7.560;2023-04-20T12:38:23;101333.00;;;11.08;41.75
64841;BME280;51307;52.162;7.560;2023-04-20T12:40:49;101342.34;;;11.22;41.98
64841;BME280;51307;52.162;7.560;2023-04-20T12:43:14;101341.75;;;11.28;40.67
64841;BME280;51307;52.162;7.560;2023-04-20T12:45:40;101334.53;;;11.28;40.24
64841;BME280;51307;52.162;7.560;2023-04-20T12:48:05;101334.78;;;11.35;40.34
64841;BME280;51307;52.162;7.560;2023-04-20T12:50:31;101323.47;;;11.41;40.94
64841;BME280;51307;52.162;7.560;2023-04-20T12:52:56;101327.59;;;11.54;40.68
64841;BME280;51307;52.162;7.560;2023-04-20T12:55:24;101325.22;;;11.51;41.48
64841;BME280;51307;52.162;7.560;2023-04-20T12:57:50;101329.50;;;11.43;39.96